sensor_id;sensor_type;location;lat;lon;timestamp;temperature;humidity
26503;DHT22;14177;51.520;6.764;2023-02-17T00:01:30;11.20;99.90
26503;DHT22;14177;51.520;6.764;2023-02-17T00:03:59;11.20;99.90
26503;DHT22;14177;51.520;6.764;2023-02-17T00:06:28;11.20;99.90
26503;DHT22;14177;51.520;6.764;2023-02-17T00:08:57;11.20;99.90
26503;DHT22;14177;51.520;6.764;2023-02-17T00:11:25;11.20;99.90
26503;DHT22;14177;51.520;6.764;2023-02-17T00:13:54;11.20;99.90
26503;DHT22;14177;51.520;6.764;2023-02-17T00:16:25;11.20;99.90
26503;DHT22;14177;51.520;6.764;2023-02-17T00:18:57;11.20;99.90
26503;DHT22;14177;51.520;6.764;2023-02-17T00:21:28;11.20;99.90
26503;DHT22;14177;51.520;6.764;2023-02-17T00:23:57;11.20;99.90
26503;DHT22;14177;51.520;6.764;2023-02-17T00:26:24;11.20;99.90
26503;DHT22;14177;51.520;6.764;2023-02-17T00:28:52;11.20;99.90
26503;DHT22;14177;51.520;6.764;2023-02-17T00:31:21;11.20;99.90
26503;DHT22;14177;51.520;6.764;2023-02-17T00:33:53;11.10;99.90
26503;DHT22;14177;51.520;6.764;2023-02-17T00:36:21;11.10;99.90
26503;DHT22;14177;51.520;6.764;2023-02-17T00:38:49;11.10;99.90
26503;DHT22;14177;51.520;6.764;2023-02-17T00:41:17;11.10;99.90
26503;DHT22;14177;51.520;6.764;2023-02-17T00:43:46;11.10;99.90
26503;DHT22;14177;51.520;6.764;2023-02-17T00:46:15;11.00;99.90
26503;DHT22;14177;51.520;6.764;2023-02-17T00:48:44;11.00;99.90
26503;DHT22;14177;51.520;6.764;2023-02-17T00:51:13;11.10;99.90
26503;DHT22;14177;51.520;6.764;2023-02-17T00:53:41;11.10;99.90
26503;DHT22;14177;51.520;6.764;2023-02-17T00:56:09;11.10;99.90
26503;DHT22;14177;51.520;6.764;2023-02-17T00:58:37;11.10;99.90
26503;DHT22;14177;51.520;6.764;2023-02-17T01:01:05;11.20;99.90
26503;DHT22;14177;51.520;6.764;2023-02-17T01:03:32;11.20;99.90
26503;DHT22;14177;51.520;6.764;2023-02-17T01:06:06;11.20;99.90
26503;DHT22;14177;51.520;6.764;2023-02-17T01:08:34;11.20;99.90
26503;DHT22;14177;51.520;6.764;2023-02-17T01:11:02;11.10;99.90
26503;DHT22;14177;51.520;6.764;2023-02-17T01:13:31;11.10;99.90
26503;DHT22;14177;51.520;6.764;2023-02-17T01:15:58;11.10;99.90
26503;DHT22;14177;51.520;6.764;2023-02-17T01:18:26;11.10;99.90
26503;DHT22;14177;51.520;6.764;2023-02-17T01:20:53;11.10;99.90
26503;DHT22;14177;51.520;6.764;2023-02-17T01:23:20;11.00;99.90
26503;DHT22;14177;51.520;6.764;2023-02-17T01:25:48;11.00;99.90
26503;DHT22;14177;51.520;6.764;2023-02-17T01:28:21;11.00;99.90
26503;DHT22;14177;51.520;6.764;2023-02-17T01:30:51;11.00;99.90
26503;DHT22;14177;51.520;6.764;2023-02-17T01:33:18;11.00;99.90
26503;DHT22;14177;51.520;6.764;2023-02-17T01:35:45;11.00;99.90
26503;DHT22;14177;51.520;6.764;2023-02-17T01:38:12;11.00;99.90
26503;DHT22;14177;51.520;6.764;2023-02-17T01:40:47;11.00;99.90
26503;DHT22;14177;51.520;6.764;2023-02-17T01:43:16;11.10;99.90
26503;DHT22;14177;51.520;6.764;2023-02-17T01:46:05;11.00;99.90
26503;DHT22;14177;51.520;6.764;2023-02-17T01:48:46;10.90;99.90
26503;DHT22;14177;51.520;6.764;2023-02-17T01:51:27;11.00;99.90
26503;DHT22;14177;51.520;6.764;2023-02-17T01:54:08;11.00;99.90
26503;DHT22;14177;51.520;6.764;2023-02-17T01:56:41;11.00;99.90
26503;DHT22;14177;51.520;6.764;2023-02-17T01:59:17;11.00;99.90
26503;DHT22;14177;51.520;6.764;2023-02-17T02:01:55;11.00;99.90
26503;DHT22;14177;51.520;6.764;2023-02-17T02:04:27;11.00;99.90
26503;DHT22;14177;51.520;6.764;2023-02-17T02:06:58;11.10;99.90
26503;DHT22;14177;51.520;6.764;2023-02-17T02:09:34;11.10;99.90
26503;DHT22;14177;51.520;6.764;2023-02-17T02:12:20;11.10;99.90
26503;DHT22;14177;51.520;6.764;2023-02-17T02:14:48;11.10;99.90
26503;DHT22;14177;51.520;6.764;2023-02-17T02:23:27;11.20;99.90
26503;DHT22;14177;51.520;6.764;2023-02-17T02:33:07;11.10;99.90
26503;DHT22;14177;51.520;6.764;2023-02-17T02:36:31;11.10;99.90
26503;DHT22;14177;51.520;6.764;2023-02-17T02:39:18;11.10;99.90
26503;DHT22;14177;51.520;6.764;2023-02-17T02:41:49;11.20;99.90
26503;DHT22;14177;51.520;6.764;2023-02-17T02:44:21;11.20;99.90
26503;DHT22;14177;51.520;6.764;2023-02-17T02:49:29;11.20;99.90
26503;DHT22;14177;51.520;6.764;2023-02-17T02:57:49;11.30;99.90
26503;DHT22;14177;51.520;6.764;2023-02-17T03:00:36;11.30;99.90
26503;DHT22;14177;51.520;6.764;2023-02-17T03:06:30;11.30;99.90
26503;DHT22;14177;51.520;6.764;2023-02-17T03:09:16;11.30;99.90
26503;DHT22;14177;51.520;6.764;2023-02-17T03:11:47;11.30;99.90
26503;DHT22;14177;51.520;6.764;2023-02-17T03:14:18;11.30;99.90
26503;DHT22;14177;51.520;6.764;2023-02-17T03:16:46;11.30;99.90
26503;DHT22;14177;51.520;6.764;2023-02-17T03:19:17;11.30;99.90
26503;DHT22;14177;51.520;6.764;2023-02-17T03:21:51;11.30;99.90
26503;DHT22;14177;51.520;6.764;2023-02-17T03:24:33;11.40;99.90
26503;DHT22;14177;51.520;6.764;2023-02-17T03:27:00;11.40;99.90
26503;DHT22;14177;51.520;6.764;2023-02-17T03:29:30;11.40;99.90
26503;DHT22;14177;51.520;6.764;2023-02-17T03:32:03;11.40;99.90
26503;DHT22;14177;51.520;6.764;2023-02-17T03:34:32;11.40;99.90
26503;DHT22;14177;51.520;6.764;2023-02-17T03:36:59;11.40;99.90
26503;DHT22;14177;51.520;6.764;2023-02-17T03:39:27;11.40;99.90
26503;DHT22;14177;51.520;6.764;2023-02-17T03:41:54;11.40;99.90
26503;DHT22;14177;51.520;6.764;2023-02-17T03:44:23;11.50;99.90
26503;DHT22;14177;51.520;6.764;2023-02-17T03:46:51;11.50;99.90
26503;DHT22;14177;51.520;6.764;2023-02-17T03:49:18;11.50;99.90
26503;DHT22;14177;51.520;6.764;2023-02-17T03:51:45;11.40;99.90
26503;DHT22;14177;51.520;6.764;2023-02-17T03:54:12;11.40;99.90
26503;DHT22;14177;51.520;6.764;2023-02-17T03:56:39;11.50;99.90
26503;DHT22;14177;51.520;6.764;2023-02-17T03:59:07;11.50;99.90
26503;DHT22;14177;51.520;6.764;2023-02-17T04:01:34;11.50;99.90
26503;DHT22;14177;51.520;6.764;2023-02-17T04:04:05;11.40;99.90
26503;DHT22;14177;51.520;6.764;2023-02-17T04:06:32;11.50;99.90
26503;DHT22;14177;51.520;6.764;2023-02-17T04:09:00;11.50;99.90
26503;DHT22;14177;51.520;6.764;2023-02-17T04:11:28;11.50;99.90
26503;DHT22;14177;51.520;6.764;2023-02-17T04:13:55;11.50;99.90
26503;DHT22;14177;51.520;6.764;2023-02-17T04:16:22;11.40;99.90
26503;DHT22;14177;51.520;6.764;2023-02-17T04:18:49;11.40;99.90
26503;DHT22;14177;51.520;6.764;2023-02-17T04:21:16;11.40;99.90
26503;DHT22;14177;51.520;6.764;2023-02-17T04:23:43;11.40;99.90
26503;DHT22;14177;51.520;6.764;2023-02-17T04:26:10;11.40;99.90
26503;DHT22;14177;51.520;6.764;2023-02-17T04:28:38;11.40;99.90
26503;DHT22;14177;51.520;6.764;2023-02-17T04:31:06;11.40;99.90
26503;DHT22;14177;51.520;6.764;2023-02-17T04:33:34;11.40;99.90
26503;DHT22;14177;51.520;6.764;2023-02-17T04:36:01;11.50;99.90
26503;DHT22;14177;51.520;6.764;2023-02-17T04:38:30;11.50;99.90
26503;DHT22;14177;51.520;6.764;2023-02-17T04:40:58;11.50;99.90
26503;DHT22;14177;51.520;6.764;2023-02-17T04:43:27;11.50;99.90
26503;DHT22;14177;51.520;6.764;2023-02-17T04:45:55;11.50;99.90
26503;DHT22;14177;51.520;6.764;2023-02-17T04:48:22;11.50;99.90
26503;DHT22;14177;51.520;6.764;2023-02-17T04:50:50;11.50;99.90
26503;DHT22;14177;51.520;6.764;2023-02-17T04:53:18;11.50;99.90
26503;DHT22;14177;51.520;6.764;2023-02-17T04:55:48;11.50;99.90
26503;DHT22;14177;51.520;6.764;2023-02-17T04:58:16;11.50;99.90
26503;DHT22;14177;51.520;6.764;2023-02-17T05:00:46;11.50;99.90
26503;DHT22;14177;51.520;6.764;2023-02-17T05:03:14;11.50;99.90
26503;DHT22;14177;51.520;6.764;2023-02-17T05:05:42;11.60;99.90
26503;DHT22;14177;51.520;6.764;2023-02-17T05:08:09;11.60;99.90
26503;DHT22;14177;51.520;6.764;2023-02-17T05:10:35;11.60;99.90
26503;DHT22;14177;51.520;6.764;2023-02-17T05:13:03;11.60;99.90
26503;DHT22;14177;51.520;6.764;2023-02-17T05:15:30;11.60;99.90
26503;DHT22;14177;51.520;6.764;2023-02-17T05:18:00;11.50;99.90
26503;DHT22;14177;51.520;6.764;2023-02-17T05:20:27;11.50;99.90
26503;DHT22;14177;51.520;6.764;2023-02-17T05:22:55;11.50;99.90
26503;DHT22;14177;51.520;6.764;2023-02-17T05:25:21;11.50;99.90
26503;DHT22;14177;51.520;6.764;2023-02-17T05:27:48;11.50;99.90
26503;DHT22;14177;51.520;6.764;2023-02-17T05:30:15;11.50;99.90
26503;DHT22;14177;51.520;6.764;2023-02-17T05:32:42;11.60;99.90
26503;DHT22;14177;51.520;6.764;2023-02-17T05:35:10;11.50;99.90
26503;DHT22;14177;51.520;6.764;2023-02-17T05:37:37;11.50;99.90
26503;DHT22;14177;51.520;6.764;2023-02-17T05:40:04;11.50;99.90
26503;DHT22;14177;51.520;6.764;2023-02-17T05:42:32;11.50;99.90
26503;DHT22;14177;51.520;6.764;2023-02-17T05:44:59;11.50;99.90
26503;DHT22;14177;51.520;6.764;2023-02-17T05:47:25;11.50;99.90
26503;DHT22;14177;51.520;6.764;2023-02-17T05:49:53;11.50;99.90
26503;DHT22;14177;51.520;6.764;2023-02-17T05:52:20;11.50;99.90
26503;DHT22;14177;51.520;6.764;2023-02-17T05:54:47;11.50;99.90
26503;DHT22;14177;51.520;6.764;2023-02-17T05:57:14;11.50;99.90
26503;DHT22;14177;51.520;6.764;2023-02-17T05:59:41;11.50;99.90
26503;DHT22;14177;51.520;6.764;2023-02-17T06:02:08;11.40;99.90
26503;DHT22;14177;51.520;6.764;2023-02-17T06:04:36;11.50;99.90
26503;DHT22;14177;51.520;6.764;2023-02-17T06:07:03;11.50;99.90
26503;DHT22;14177;51.520;6.764;2023-02-17T06:09:30;11.50;99.90
26503;DHT22;14177;51.520;6.764;2023-02-17T06:11:57;11.40;99.90
26503;DHT22;14177;51.520;6.764;2023-02-17T06:14:24;11.40;99.90
26503;DHT22;14177;51.520;6.764;2023-02-17T06:16:51;11.40;99.90
26503;DHT22;14177;51.520;6.764;2023-02-17T06:19:19;11.40;99.90
26503;DHT22;14177;51.520;6.764;2023-02-17T06:21:46;11.40;99.90
26503;DHT22;14177;51.520;6.764;2023-02-17T06:24:13;11.50;99.90
26503;DHT22;14177;51.520;6.764;2023-02-17T06:26:40;11.40;99.90
26503;DHT22;14177;51.520;6.764;2023-02-17T06:29:06;11.40;99.90
26503;DHT22;14177;51.520;6.764;2023-02-17T06:31:33;11.40;99.90
26503;DHT22;14177;51.520;6.764;2023-02-17T06:34:04;11.40;99.90
26503;DHT22;14177;51.520;6.764;2023-02-17T06:36:32;11.40;99.90
26503;DHT22;14177;51.520;6.764;2023-02-17T06:39:02;11.40;99.90
26503;DHT22;14177;51.520;6.764;2023-02-17T06:41:29;11.40;99.90
26503;DHT22;14177;51.520;6.764;2023-02-17T06:43:58;11.30;99.90
26503;DHT22;14177;51.520;6.764;2023-02-17T06:46:25;11.40;99.90
26503;DHT22;14177;51.520;6.764;2023-02-17T06:48:52;11.40;99.90
26503;DHT22;14177;51.520;6.764;2023-02-17T06:51:19;11.40;99.90
26503;DHT22;14177;51.520;6.764;2023-02-17T06:53:46;11.30;99.90
26503;DHT22;14177;51.520;6.764;2023-02-17T06:56:13;11.30;99.90
26503;DHT22;14177;51.520;6.764;2023-02-17T06:58:41;11.30;99.90
26503;DHT22;14177;51.520;6.764;2023-02-17T07:01:20;11.30;99.90
26503;DHT22;14177;51.520;6.764;2023-02-17T07:03:54;11.40;99.90
26503;DHT22;14177;51.520;6.764;2023-02-17T07:06:23;11.40;99.90
26503;DHT22;14177;51.520;6.764;2023-02-17T07:08:51;11.40;99.90
26503;DHT22;14177;51.520;6.764;2023-02-17T07:11:23;11.40;99.90
26503;DHT22;14177;51.520;6.764;2023-02-17T07:13:51;11.40;99.90
26503;DHT22;14177;51.520;6.764;2023-02-17T07:16:18;11.30;99.90
26503;DHT22;14177;51.520;6.764;2023-02-17T07:18:45;11.30;99.90
26503;DHT22;14177;51.520;6.764;2023-02-17T07:21:12;11.30;99.90
26503;DHT22;14177;51.520;6.764;2023-02-17T07:23:40;11.30;99.90
26503;DHT22;14177;51.520;6.764;2023-02-17T07:26:09;11.30;99.90
26503;DHT22;14177;51.520;6.764;2023-02-17T07:28:38;11.30;99.90
26503;DHT22;14177;51.520;6.764;2023-02-17T07:31:09;11.30;99.90
26503;DHT22;14177;51.520;6.764;2023-02-17T07:33:39;11.30;99.90
26503;DHT22;14177;51.520;6.764;2023-02-17T07:36:08;11.30;99.90
26503;DHT22;14177;51.520;6.764;2023-02-17T07:38:37;11.30;99.90
26503;DHT22;14177;51.520;6.764;2023-02-17T07:41:11;11.50;99.90
26503;DHT22;14177;51.520;6.764;2023-02-17T07:43:40;11.50;99.90
26503;DHT22;14177;51.520;6.764;2023-02-17T07:46:08;11.50;99.90
26503;DHT22;14177;51.520;6.764;2023-02-17T07:48:36;11.50;99.90
26503;DHT22;14177;51.520;6.764;2023-02-17T07:51:06;11.50;99.90
26503;DHT22;14177;51.520;6.764;2023-02-17T07:53:38;11.50;99.90
26503;DHT22;14177;51.520;6.764;2023-02-17T07:56:07;11.50;99.90
26503;DHT22;14177;51.520;6.764;2023-02-17T07:58:38;11.50;99.90
26503;DHT22;14177;51.520;6.764;2023-02-17T08:01:12;11.50;99.90
26503;DHT22;14177;51.520;6.764;2023-02-17T08:03:41;11.50;99.90
26503;DHT22;14177;51.520;6.764;2023-02-17T08:06:11;11.50;99.90
26503;DHT22;14177;51.520;6.764;2023-02-17T08:08:40;11.60;99.90
26503;DHT22;14177;51.520;6.764;2023-02-17T08:11:26;11.60;99.90
26503;DHT22;14177;51.520;6.764;2023-02-17T08:14:15;11.70;99.90
26503;DHT22;14177;51.520;6.764;2023-02-17T08:16:43;11.70;99.90
26503;DHT22;14177;51.520;6.764;2023-02-17T08:19:10;11.70;99.90
26503;DHT22;14177;51.520;6.764;2023-02-17T08:21:37;11.70;99.90
26503;DHT22;14177;51.520;6.764;2023-02-17T08:24:04;11.70;99.90
26503;DHT22;14177;51.520;6.764;2023-02-17T08:26:31;11.80;99.90
26503;DHT22;14177;51.520;6.764;2023-02-17T08:28:58;11.80;99.90
26503;DHT22;14177;51.520;6.764;2023-02-17T08:31:30;11.90;99.90
26503;DHT22;14177;51.520;6.764;2023-02-17T08:34:01;11.90;99.90
26503;DHT22;14177;51.520;6.764;2023-02-17T08:36:31;11.90;99.90
26503;DHT22;14177;51.520;6.764;2023-02-17T08:38:58;11.90;99.90
26503;DHT22;14177;51.520;6.764;2023-02-17T08:41:31;11.90;99.90
26503;DHT22;14177;51.520;6.764;2023-02-17T08:44:02;11.90;99.90
26503;DHT22;14177;51.520;6.764;2023-02-17T08:46:33;11.90;99.90
26503;DHT22;14177;51.520;6.764;2023-02-17T08:49:03;11.90;99.90
26503;DHT22;14177;51.520;6.764;2023-02-17T08:51:30;12.00;99.90
26503;DHT22;14177;51.520;6.764;2023-02-17T08:53:58;12.00;99.90
26503;DHT22;14177;51.520;6.764;2023-02-17T08:56:27;12.00;99.90
26503;DHT22;14177;51.520;6.764;2023-02-17T08:58:54;12.00;99.90
26503;DHT22;14177;51.520;6.764;2023-02-17T09:01:22;12.10;99.90
26503;DHT22;14177;51.520;6.764;2023-02-17T09:03:51;12.10;99.90
26503;DHT22;14177;51.520;6.764;2023-02-17T09:06:20;12.10;99.90
26503;DHT22;14177;51.520;6.764;2023-02-17T09:08:47;12.10;99.90
26503;DHT22;14177;51.520;6.764;2023-02-17T09:11:16;12.10;99.90
26503;DHT22;14177;51.520;6.764;2023-02-17T09:13:45;12.20;99.90
26503;DHT22;14177;51.520;6.764;2023-02-17T09:16:13;12.20;99.90
26503;DHT22;14177;51.520;6.764;2023-02-17T09:18:40;12.30;99.90
26503;DHT22;14177;51.520;6.764;2023-02-17T09:21:09;12.30;99.90
26503;DHT22;14177;51.520;6.764;2023-02-17T09:23:38;12.40;99.90
26503;DHT22;14177;51.520;6.764;2023-02-17T09:26:14;12.40;99.90
26503;DHT22;14177;51.520;6.764;2023-02-17T09:28:43;12.50;99.90
26503;DHT22;14177;51.520;6.764;2023-02-17T09:31:16;12.50;99.90
26503;DHT22;14177;51.520;6.764;2023-02-17T09:33:45;12.60;99.90
26503;DHT22;14177;51.520;6.764;2023-02-17T09:36:17;12.60;99.90
26503;DHT22;14177;51.520;6.764;2023-02-17T09:38:46;12.60;99.90
26503;DHT22;14177;51.520;6.764;2023-02-17T09:43:54;12.60;99.90
26503;DHT22;14177;51.520;6.764;2023-02-17T09:46:35;12.70;99.90
26503;DHT22;14177;51.520;6.764;2023-02-17T09:49:24;12.70;99.90
26503;DHT22;14177;51.520;6.764;2023-02-17T09:52:12;12.70;99.90
26503;DHT22;14177;51.520;6.764;2023-02-17T09:55:04;12.70;99.90
26503;DHT22;14177;51.520;6.764;2023-02-17T09:57:45;12.70;99.90
26503;DHT22;14177;51.520;6.764;2023-02-17T10:00:31;12.80;99.90
26503;DHT22;14177;51.520;6.764;2023-02-17T10:03:05;12.80;99.90
26503;DHT22;14177;51.520;6.764;2023-02-17T10:11:31;12.80;99.90
26503;DHT22;14177;51.520;6.764;2023-02-17T10:14:37;12.90;99.90
26503;DHT22;14177;51.520;6.764;2023-02-17T10:17:23;12.90;99.90
26503;DHT22;14177;51.520;6.764;2023-02-17T10:20:11;12.90;99.90
26503;DHT22;14177;51.520;6.764;2023-02-17T10:22:46;12.90;99.90
26503;DHT22;14177;51.520;6.764;2023-02-17T10:31:39;12.90;99.90
26503;DHT22;14177;51.520;6.764;2023-02-17T10:34:34;12.90;99.90
26503;DHT22;14177;51.520;6.764;2023-02-17T10:37:37;12.80;99.90
26503;DHT22;14177;51.520;6.764;2023-02-17T10:40:18;12.90;99.90
26503;DHT22;14177;51.520;6.764;2023-02-17T10:42:50;12.90;99.90
26503;DHT22;14177;51.520;6.764;2023-02-17T10:45:27;13.00;99.90
26503;DHT22;14177;51.520;6.764;2023-02-17T10:48:06;13.00;99.90
26503;DHT22;14177;51.520;6.764;2023-02-17T10:50:40;13.10;99.90
26503;DHT22;14177;51.520;6.764;2023-02-17T10:53:33;13.20;99.90
26503;DHT22;14177;51.520;6.764;2023-02-17T10:56:31;13.30;99.90
26503;DHT22;14177;51.520;6.764;2023-02-17T10:59:23;13.30;99.90
26503;DHT22;14177;51.520;6.764;2023-02-17T11:04:49;13.40;99.90
26503;DHT22;14177;51.520;6.764;2023-02-17T11:07:23;13.30;99.90
26503;DHT22;14177;51.520;6.764;2023-02-17T11:12:51;13.30;99.90
26503;DHT22;14177;51.520;6.764;2023-02-17T11:15:25;13.40;99.90
26503;DHT22;14177;51.520;6.764;2023-02-17T11:17:55;13.40;99.90
26503;DHT22;14177;51.520;6.764;2023-02-17T11:20:44;13.40;99.90
26503;DHT22;14177;51.520;6.764;2023-02-17T11:23:22;13.50;99.90
26503;DHT22;14177;51.520;6.764;2023-02-17T11:26:09;13.70;99.90
26503;DHT22;14177;51.520;6.764;2023-02-17T11:28:42;13.80;99.90
26503;DHT22;14177;51.520;6.764;2023-02-17T11:31:27;13.90;99.90
26503;DHT22;14177;51.520;6.764;2023-02-17T11:33:56;14.00;99.90
26503;DHT22;14177;51.520;6.764;2023-02-17T11:36:26;14.10;99.90
26503;DHT22;14177;51.520;6.764;2023-02-17T11:38:55;14.20;99.90
26503;DHT22;14177;51.520;6.764;2023-02-17T11:41:23;14.30;99.90
26503;DHT22;14177;51.520;6.764;2023-02-17T11:43:58;14.30;99.90
26503;DHT22;14177;51.520;6.764;2023-02-17T11:49:53;14.30;99.90
26503;DHT22;14177;51.520;6.764;2023-02-17T11:53:02;14.30;99.90
26503;DHT22;14177;51.520;6.764;2023-02-17T11:56:11;14.20;99.90
26503;DHT22;14177;51.520;6.764;2023-02-17T12:01:47;14.10;99.90
26503;DHT22;14177;51.520;6.764;2023-02-17T12:10:04;14.10;99.90
26503;DHT22;14177;51.520;6.764;2023-02-17T12:21:46;14.30;99.90
26503;DHT22;14177;51.520;6.764;2023-02-17T12:24:56;14.30;99.90
26503;DHT22;14177;51.520;6.764;2023-02-17T12:34:11;14.40;99.90
26503;DHT22;14177;51.520;6.764;2023-02-17T12:36:47;14.30;99.90
26503;DHT22;14177;51.520;6.764;2023-02-17T12:39:28;14.30;99.90
26503;DHT22;14177;51.520;6.764;2023-02-17T12:42:37;14.30;99.90
26503;DHT22;14177;51.520;6.764;2023-02-17T12:45:24;14.30;99.90
26503;DHT22;14177;51.520;6.764;2023-02-17T12:48:04;14.20;99.90
26503;DHT22;14177;51.520;6.764;2023-02-17T12:50:51;14.20;99.90
26503;DHT22;14177;51.520;6.764;2023-02-17T12:53:47;14.20;99.90
26503;DHT22;14177;51.520;6.764;2023-02-17T12:59:21;14.20;99.90
26503;DHT22;14177;51.520;6.764;2023-02-17T13:02:13;14.20;99.90
26503;DHT22;14177;51.520;6.764;2023-02-17T13:04:45;14.30;99.90
26503;DHT22;14177;51.520;6.764;2023-02-17T13:10:36;14.30;99.90
26503;DHT22;14177;51.520;6.764;2023-02-17T13:16:04;14.30;99.90
26503;DHT22;14177;51.520;6.764;2023-02-17T13:18:37;14.30;99.90
26503;DHT22;14177;51.520;6.764;2023-02-17T13:26:42;14.30;99.90
26503;DHT22;14177;51.520;6.764;2023-02-17T13:31:56;14.40;99.90
26503;DHT22;14177;51.520;6.764;2023-02-17T13:37:01;14.40;99.90
26503;DHT22;14177;51.520;6.764;2023-02-17T13:39:42;14.40;99.90
26503;DHT22;14177;51.520;6.764;2023-02-17T13:42:38;14.40;99.90
26503;DHT22;14177;51.520;6.764;2023-02-17T13:48:26;14.30;99.90
26503;DHT22;14177;51.520;6.764;2023-02-17T13:56:11;14.10;99.90
26503;DHT22;14177;51.520;6.764;2023-02-17T13:58:51;14.10;99.90
26503;DHT22;14177;51.520;6.764;2023-02-17T14:01:25;14.10;99.90
26503;DHT22;14177;51.520;6.764;2023-02-17T14:03:55;14.00;99.90
26503;DHT22;14177;51.520;6.764;2023-02-17T14:08:53;13.90;99.90
26503;DHT22;14177;51.520;6.764;2023-02-17T14:11:27;13.90;99.90
26503;DHT22;14177;51.520;6.764;2023-02-17T14:13:58;13.90;99.90
26503;DHT22;14177;51.520;6.764;2023-02-17T14:16:37;13.90;99.90
26503;DHT22;14177;51.520;6.764;2023-02-17T14:19:15;13.80;99.90
26503;DHT22;14177;51.520;6.764;2023-02-17T14:21:59;13.80;99.90
26503;DHT22;14177;51.520;6.764;2023-02-17T14:24:30;13.80;99.90
26503;DHT22;14177;51.520;6.764;2023-02-17T14:27:02;13.80;99.90
26503;DHT22;14177;51.520;6.764;2023-02-17T14:29:39;13.80;99.90
26503;DHT22;14177;51.520;6.764;2023-02-17T14:32:31;13.70;99.90
26503;DHT22;14177;51.520;6.764;2023-02-17T14:35:28;13.70;99.90
26503;DHT22;14177;51.520;6.764;2023-02-17T14:38:06;13.60;99.90
26503;DHT22;14177;51.520;6.764;2023-02-17T14:40:34;13.50;99.90
26503;DHT22;14177;51.520;6.764;2023-02-17T14:43:04;13.40;99.90
26503;DHT22;14177;51.520;6.764;2023-02-17T14:45:31;13.40;99.90
26503;DHT22;14177;51.520;6.764;2023-02-17T14:47:58;13.30;99.90
26503;DHT22;14177;51.520;6.764;2023-02-17T14:50:25;13.20;99.90
26503;DHT22;14177;51.520;6.764;2023-02-17T14:52:52;13.10;99.90
26503;DHT22;14177;51.520;6.764;2023-02-17T14:55:35;13.00;99.90
26503;DHT22;14177;51.520;6.764;2023-02-17T14:58:16;12.90;99.90
26503;DHT22;14177;51.520;6.764;2023-02-17T15:00:45;12.90;99.90
26503;DHT22;14177;51.520;6.764;2023-02-17T15:03:14;12.80;99.90
26503;DHT22;14177;51.520;6.764;2023-02-17T15:05:41;12.70;99.90
26503;DHT22;14177;51.520;6.764;2023-02-17T15:08:12;12.70;99.90
26503;DHT22;14177;51.520;6.764;2023-02-17T15:10:41;12.60;99.90
26503;DHT22;14177;51.520;6.764;2023-02-17T15:13:14;12.50;99.90
26503;DHT22;14177;51.520;6.764;2023-02-17T15:15:43;12.50;99.90
26503;DHT22;14177;51.520;6.764;2023-02-17T15:18:11;12.50;99.90
26503;DHT22;14177;51.520;6.764;2023-02-17T15:20:40;12.40;99.90
26503;DHT22;14177;51.520;6.764;2023-02-17T15:23:20;12.40;99.90
26503;DHT22;14177;51.520;6.764;2023-02-17T15:25:49;12.50;99.90
26503;DHT22;14177;51.520;6.764;2023-02-17T15:28:18;12.50;99.90
26503;DHT22;14177;51.520;6.764;2023-02-17T15:30:50;12.50;99.90
26503;DHT22;14177;51.520;6.764;2023-02-17T15:33:20;12.60;99.90
26503;DHT22;14177;51.520;6.764;2023-02-17T15:35:51;12.60;99.90
26503;DHT22;14177;51.520;6.764;2023-02-17T15:38:20;12.60;99.90
26503;DHT22;14177;51.520;6.764;2023-02-17T15:40:47;12.60;99.90
26503;DHT22;14177;51.520;6.764;2023-02-17T15:43:18;12.60;99.90
26503;DHT22;14177;51.520;6.764;2023-02-17T15:45:47;12.60;99.90
26503;DHT22;14177;51.520;6.764;2023-02-17T15:48:22;12.60;99.90
26503;DHT22;14177;51.520;6.764;2023-02-17T15:50:51;12.60;99.90
26503;DHT22;14177;51.520;6.764;2023-02-17T15:53:19;12.60;99.90
26503;DHT22;14177;51.520;6.764;2023-02-17T15:55:46;12.60;99.90
26503;DHT22;14177;51.520;6.764;2023-02-17T15:58:19;12.60;99.90
26503;DHT22;14177;51.520;6.764;2023-02-17T16:00:48;12.60;99.90
26503;DHT22;14177;51.520;6.764;2023-02-17T16:03:16;12.60;99.90
26503;DHT22;14177;51.520;6.764;2023-02-17T16:05:46;12.50;99.90
26503;DHT22;14177;51.520;6.764;2023-02-17T16:08:13;12.50;99.90
26503;DHT22;14177;51.520;6.764;2023-02-17T16:10:40;12.60;99.90
26503;DHT22;14177;51.520;6.764;2023-02-17T16:13:13;12.60;99.90
26503;DHT22;14177;51.520;6.764;2023-02-17T16:15:42;12.60;99.90
26503;DHT22;14177;51.520;6.764;2023-02-17T16:18:20;12.60;99.90
26503;DHT22;14177;51.520;6.764;2023-02-17T16:20:48;12.60;99.90
26503;DHT22;14177;51.520;6.764;2023-02-17T16:23:17;12.60;99.90
26503;DHT22;14177;51.520;6.764;2023-02-17T16:25:45;12.60;99.90
26503;DHT22;14177;51.520;6.764;2023-02-17T16:28:19;12.60;99.90
26503;DHT22;14177;51.520;6.764;2023-02-17T16:30:48;12.60;99.90
26503;DHT22;14177;51.520;6.764;2023-02-17T16:33:17;12.60;99.90
26503;DHT22;14177;51.520;6.764;2023-02-17T16:35:44;12.60;99.90
26503;DHT22;14177;51.520;6.764;2023-02-17T16:40:42;12.60;99.90
26503;DHT22;14177;51.520;6.764;2023-02-17T16:43:15;12.60;99.90
26503;DHT22;14177;51.520;6.764;2023-02-17T16:45:58;12.60;99.90
26503;DHT22;14177;51.520;6.764;2023-02-17T16:48:29;12.60;99.90
26503;DHT22;14177;51.520;6.764;2023-02-17T16:50:57;12.60;99.90
26503;DHT22;14177;51.520;6.764;2023-02-17T16:53:25;12.70;99.90
26503;DHT22;14177;51.520;6.764;2023-02-17T16:55:53;12.60;99.90
26503;DHT22;14177;51.520;6.764;2023-02-17T16:58:23;12.60;99.90
26503;DHT22;14177;51.520;6.764;2023-02-17T17:00:53;12.60;99.90
26503;DHT22;14177;51.520;6.764;2023-02-17T17:03:21;12.60;99.90
26503;DHT22;14177;51.520;6.764;2023-02-17T17:05:52;12.50;99.90
26503;DHT22;14177;51.520;6.764;2023-02-17T17:08:19;12.50;99.90
26503;DHT22;14177;51.520;6.764;2023-02-17T17:10:48;12.50;99.90
26503;DHT22;14177;51.520;6.764;2023-02-17T17:13:15;12.50;99.90
26503;DHT22;14177;51.520;6.764;2023-02-17T17:15:44;12.50;99.90
26503;DHT22;14177;51.520;6.764;2023-02-17T17:18:17;12.50;99.90
26503;DHT22;14177;51.520;6.764;2023-02-17T17:20:47;12.40;99.90
26503;DHT22;14177;51.520;6.764;2023-02-17T17:23:15;12.40;99.90
26503;DHT22;14177;51.520;6.764;2023-02-17T17:25:44;12.40;99.90
26503;DHT22;14177;51.520;6.764;2023-02-17T17:31:18;12.50;99.90
26503;DHT22;14177;51.520;6.764;2023-02-17T17:33:47;12.40;99.90
26503;DHT22;14177;51.520;6.764;2023-02-17T17:39:01;12.40;99.90
26503;DHT22;14177;51.520;6.764;2023-02-17T17:41:30;12.40;99.90
26503;DHT22;14177;51.520;6.764;2023-02-17T17:43:57;12.40;99.90
26503;DHT22;14177;51.520;6.764;2023-02-17T17:46:27;12.40;99.90
26503;DHT22;14177;51.520;6.764;2023-02-17T17:48:57;12.40;99.90
26503;DHT22;14177;51.520;6.764;2023-02-17T17:51:27;12.40;99.90
26503;DHT22;14177;51.520;6.764;2023-02-17T17:53:55;12.40;99.90